This is the latest recevied weather packets stored in our database for station/object WD4LSS. If no packets are shown the sender has not sent any weather packets the latest 10 day(s).
| Time | Temp. | Humidity | Pressure | Rain* | Wind** | Luminosity | Snow |
|---|---|---|---|---|---|---|---|
| 1777675817 | 17.78° C | 58% | 1011.7 hPa | 0 mm | - | - | - |
| 1777673116 | 18.89° C | 57% | 1011.7 hPa | 0 mm | - | - | - |
| 1777671616 | 18.89° C | 57% | 1012 hPa | 0 mm | - | - | - |
| 1777669236 | 20° C | 55% | 1012.1 hPa | 0 mm | - | - | - |
| 1777668916 | 19.44° C | 54% | 1012 hPa | 0 mm | - | - | - |
| 1777667716 | 20° C | 52% | 1012.3 hPa | 0 mm | - | - | - |
| 1777667416 | 20.56° C | 50% | 1012.4 hPa | 0 mm | - | - | - |
| 1777666216 | 20° C | 51% | 1012.5 hPa | 0 mm | - | - | - |
| 1777662016 | 19.44° C | 47% | 1013.9 hPa | 0 mm | - | - | - |
| 1777661416 | 19.44° C | 49% | 1014.1 hPa | 0 mm | - | - | - |
| 1777659316 | 18.89° C | 49% | 1014.6 hPa | 0 mm | - | - | - |
| 1777656616 | 18.33° C | 51% | 1015 hPa | 0 mm | - | - | - |
| 1777653916 | 17.22° C | 51% | 1015.5 hPa | 0 mm | - | - | - |
| 1777647318 | 14.44° C | 59% | 1016.6 hPa | 0 mm | - | - | - |
| 1777644317 | 13.33° C | 62% | 1016.6 hPa | 0 mm | - | - | - |
| 1777644037 | 13.33° C | 64% | 1016.6 hPa | 0 mm | - | - | - |
| 1777642517 | 12.78° C | 65% | 1016.5 hPa | 0 mm | - | - | - |
| 1777641037 | 11.67° C | 66% | 1016.3 hPa | 0 mm | - | - | - |
| 1777640437 | 11.67° C | 69% | 1016.4 hPa | 0 mm | - | - | - |
| 1777638917 | 10.56° C | 74% | 1016.7 hPa | 0 mm | - | - | - |
| 1777636817 | 8.89° C | 82% | 1016.4 hPa | 0 mm | - | - | - |
| 1777636217 | 8.89° C | 85% | 1016.4 hPa | 0 mm | - | - | - |
| 1777633517 | 8.33° C | 84% | 1016.5 hPa | 0 mm | - | - | - |
| 1777627229 | 8.33° C | 80% | 1015.3 hPa | 0 mm | - | - | - |
| 1777626929 | 8.33° C | 80% | 1015.6 hPa | 0 mm | - | - | - |
* Rain latest hour (hover to see other rain measurements)
** Current wind speed in m/s (hover to see current wind gust speed)